sensor_id;sensor_type;location;lat;lon;timestamp;P1;durP1;ratioP1;P2;durP2;ratioP2
66739;SDS011;53653;52.188;8.602;2022-07-23T00:01:21;11.37;;;6.33;;
66739;SDS011;53653;52.188;8.602;2022-07-23T00:03:46;13.30;;;6.53;;
66739;SDS011;53653;52.188;8.602;2022-07-23T00:06:12;10.75;;;6.25;;
66739;SDS011;53653;52.188;8.602;2022-07-23T00:08:38;13.33;;;6.50;;
66739;SDS011;53653;52.188;8.602;2022-07-23T00:11:03;13.57;;;6.95;;
66739;SDS011;53653;52.188;8.602;2022-07-23T00:13:29;12.83;;;6.57;;
66739;SDS011;53653;52.188;8.602;2022-07-23T00:15:54;12.63;;;6.20;;
66739;SDS011;53653;52.188;8.602;2022-07-23T00:18:20;13.55;;;6.60;;
66739;SDS011;53653;52.188;8.602;2022-07-23T00:20:46;12.70;;;6.30;;
66739;SDS011;53653;52.188;8.602;2022-07-23T00:23:11;13.52;;;6.20;;
66739;SDS011;53653;52.188;8.602;2022-07-23T00:25:37;13.00;;;6.97;;
66739;SDS011;53653;52.188;8.602;2022-07-23T00:28:03;12.63;;;6.50;;
66739;SDS011;53653;52.188;8.602;2022-07-23T00:30:29;10.93;;;6.20;;
66739;SDS011;53653;52.188;8.602;2022-07-23T00:32:56;11.80;;;6.15;;
66739;SDS011;53653;52.188;8.602;2022-07-23T00:35:24;11.98;;;7.03;;
66739;SDS011;53653;52.188;8.602;2022-07-23T00:37:50;10.73;;;5.93;;
66739;SDS011;53653;52.188;8.602;2022-07-23T00:40:16;14.37;;;6.40;;
66739;SDS011;53653;52.188;8.602;2022-07-23T00:42:42;13.00;;;6.30;;
66739;SDS011;53653;52.188;8.602;2022-07-23T00:45:08;14.30;;;7.22;;
66739;SDS011;53653;52.188;8.602;2022-07-23T00:47:34;11.23;;;6.60;;
66739;SDS011;53653;52.188;8.602;2022-07-23T00:50:01;13.05;;;6.18;;
66739;SDS011;53653;52.188;8.602;2022-07-23T00:52:28;12.75;;;6.35;;
66739;SDS011;53653;52.188;8.602;2022-07-23T00:54:55;13.15;;;6.18;;
66739;SDS011;53653;52.188;8.602;2022-07-23T00:57:21;12.63;;;5.85;;
66739;SDS011;53653;52.188;8.602;2022-07-23T00:59:46;11.97;;;6.17;;
66739;SDS011;53653;52.188;8.602;2022-07-23T01:02:12;12.43;;;6.20;;
66739;SDS011;53653;52.188;8.602;2022-07-23T01:04:37;15.10;;;6.67;;
66739;SDS011;53653;52.188;8.602;2022-07-23T01:07:03;11.80;;;6.50;;
66739;SDS011;53653;52.188;8.602;2022-07-23T01:09:28;13.70;;;6.60;;
66739;SDS011;53653;52.188;8.602;2022-07-23T01:11:54;11.20;;;6.77;;
66739;SDS011;53653;52.188;8.602;2022-07-23T01:14:20;16.73;;;7.07;;
66739;SDS011;53653;52.188;8.602;2022-07-23T01:16:47;12.97;;;6.63;;
66739;SDS011;53653;52.188;8.602;2022-07-23T01:19:14;12.13;;;6.35;;
66739;SDS011;53653;52.188;8.602;2022-07-23T01:21:42;12.07;;;6.20;;
66739;SDS011;53653;52.188;8.602;2022-07-23T01:24:09;18.63;;;6.55;;
66739;SDS011;53653;52.188;8.602;2022-07-23T01:26:36;11.45;;;6.15;;
66739;SDS011;53653;52.188;8.602;2022-07-23T01:29:02;13.73;;;6.10;;
66739;SDS011;53653;52.188;8.602;2022-07-23T01:31:28;14.18;;;6.72;;
66739;SDS011;53653;52.188;8.602;2022-07-23T01:33:54;13.52;;;6.30;;
66739;SDS011;53653;52.188;8.602;2022-07-23T01:36:20;14.63;;;6.57;;
66739;SDS011;53653;52.188;8.602;2022-07-23T01:38:45;12.37;;;6.00;;
66739;SDS011;53653;52.188;8.602;2022-07-23T01:41:11;11.05;;;6.20;;
66739;SDS011;53653;52.188;8.602;2022-07-23T01:43:36;15.50;;;6.43;;
66739;SDS011;53653;52.188;8.602;2022-07-23T01:46:02;11.77;;;5.87;;
66739;SDS011;53653;52.188;8.602;2022-07-23T01:48:27;12.80;;;6.25;;
66739;SDS011;53653;52.188;8.602;2022-07-23T01:50:53;12.23;;;6.03;;
66739;SDS011;53653;52.188;8.602;2022-07-23T01:53:18;12.53;;;5.97;;
66739;SDS011;53653;52.188;8.602;2022-07-23T01:55:44;12.93;;;6.57;;
66739;SDS011;53653;52.188;8.602;2022-07-23T01:58:09;11.77;;;6.30;;
66739;SDS011;53653;52.188;8.602;2022-07-23T02:00:35;12.33;;;6.30;;
66739;SDS011;53653;52.188;8.602;2022-07-23T02:03:01;14.27;;;7.35;;
66739;SDS011;53653;52.188;8.602;2022-07-23T02:05:27;15.52;;;6.97;;
66739;SDS011;53653;52.188;8.602;2022-07-23T02:07:59;12.95;;;6.70;;
66739;SDS011;53653;52.188;8.602;2022-07-23T02:10:26;14.63;;;6.70;;
66739;SDS011;53653;52.188;8.602;2022-07-23T02:12:52;17.60;;;6.75;;
66739;SDS011;53653;52.188;8.602;2022-07-23T02:15:18;19.48;;;7.60;;
66739;SDS011;53653;52.188;8.602;2022-07-23T02:17:44;13.00;;;6.77;;
66739;SDS011;53653;52.188;8.602;2022-07-23T02:20:10;15.35;;;7.10;;
66739;SDS011;53653;52.188;8.602;2022-07-23T02:22:37;16.23;;;7.38;;
66739;SDS011;53653;52.188;8.602;2022-07-23T02:25:04;14.17;;;7.53;;
66739;SDS011;53653;52.188;8.602;2022-07-23T02:27:30;14.43;;;7.53;;
66739;SDS011;53653;52.188;8.602;2022-07-23T02:29:56;21.17;;;7.63;;
66739;SDS011;53653;52.188;8.602;2022-07-23T02:32:23;16.65;;;7.95;;
66739;SDS011;53653;52.188;8.602;2022-07-23T02:34:49;19.80;;;7.55;;
66739;SDS011;53653;52.188;8.602;2022-07-23T02:37:15;14.77;;;7.75;;
66739;SDS011;53653;52.188;8.602;2022-07-23T02:39:41;17.15;;;7.68;;
66739;SDS011;53653;52.188;8.602;2022-07-23T02:42:06;13.57;;;7.57;;
66739;SDS011;53653;52.188;8.602;2022-07-23T02:44:32;13.47;;;7.17;;
66739;SDS011;53653;52.188;8.602;2022-07-23T02:46:57;14.17;;;7.20;;
66739;SDS011;53653;52.188;8.602;2022-07-23T02:49:23;13.70;;;7.20;;
66739;SDS011;53653;52.188;8.602;2022-07-23T02:51:48;13.60;;;6.53;;
66739;SDS011;53653;52.188;8.602;2022-07-23T02:54:14;12.02;;;6.53;;
66739;SDS011;53653;52.188;8.602;2022-07-23T02:56:39;12.47;;;6.67;;
66739;SDS011;53653;52.188;8.602;2022-07-23T02:59:05;15.77;;;6.55;;
66739;SDS011;53653;52.188;8.602;2022-07-23T03:01:30;12.53;;;6.97;;
66739;SDS011;53653;52.188;8.602;2022-07-23T03:03:56;16.10;;;6.77;;
66739;SDS011;53653;52.188;8.602;2022-07-23T03:06:22;11.40;;;6.53;;
66739;SDS011;53653;52.188;8.602;2022-07-23T03:08:47;14.85;;;6.50;;
66739;SDS011;53653;52.188;8.602;2022-07-23T03:11:13;14.67;;;6.87;;
66739;SDS011;53653;52.188;8.602;2022-07-23T03:13:39;13.73;;;6.77;;
66739;SDS011;53653;52.188;8.602;2022-07-23T03:16:05;16.40;;;7.07;;
66739;SDS011;53653;52.188;8.602;2022-07-23T03:18:32;13.27;;;6.65;;
66739;SDS011;53653;52.188;8.602;2022-07-23T03:20:58;14.10;;;6.82;;
66739;SDS011;53653;52.188;8.602;2022-07-23T03:23:23;14.33;;;6.77;;
66739;SDS011;53653;52.188;8.602;2022-07-23T03:25:49;14.60;;;6.90;;
66739;SDS011;53653;52.188;8.602;2022-07-23T03:28:15;15.10;;;6.97;;
66739;SDS011;53653;52.188;8.602;2022-07-23T03:30:44;15.68;;;7.25;;
66739;SDS011;53653;52.188;8.602;2022-07-23T03:33:14;17.60;;;7.10;;
66739;SDS011;53653;52.188;8.602;2022-07-23T03:35:41;16.10;;;7.50;;
66739;SDS011;53653;52.188;8.602;2022-07-23T03:38:07;14.85;;;7.75;;
66739;SDS011;53653;52.188;8.602;2022-07-23T03:40:33;16.27;;;7.67;;
66739;SDS011;53653;52.188;8.602;2022-07-23T03:42:59;13.07;;;7.10;;
66739;SDS011;53653;52.188;8.602;2022-07-23T03:45:24;15.20;;;6.95;;
66739;SDS011;53653;52.188;8.602;2022-07-23T03:47:50;16.90;;;7.43;;
66739;SDS011;53653;52.188;8.602;2022-07-23T03:50:15;14.80;;;7.13;;
66739;SDS011;53653;52.188;8.602;2022-07-23T03:52:41;18.88;;;7.75;;
66739;SDS011;53653;52.188;8.602;2022-07-23T03:55:06;14.63;;;7.43;;
66739;SDS011;53653;52.188;8.602;2022-07-23T03:57:32;15.13;;;7.55;;
66739;SDS011;53653;52.188;8.602;2022-07-23T04:00:01;14.80;;;7.50;;
66739;SDS011;53653;52.188;8.602;2022-07-23T04:02:30;15.13;;;7.50;;
66739;SDS011;53653;52.188;8.602;2022-07-23T04:04:55;15.73;;;7.53;;
66739;SDS011;53653;52.188;8.602;2022-07-23T04:07:24;17.50;;;7.68;;
66739;SDS011;53653;52.188;8.602;2022-07-23T04:09:50;15.90;;;8.20;;
66739;SDS011;53653;52.188;8.602;2022-07-23T04:12:15;16.33;;;7.27;;
66739;SDS011;53653;52.188;8.602;2022-07-23T04:14:44;16.65;;;8.30;;
66739;SDS011;53653;52.188;8.602;2022-07-23T04:17:10;15.80;;;8.10;;
66739;SDS011;53653;52.188;8.602;2022-07-23T04:19:36;17.98;;;8.02;;
66739;SDS011;53653;52.188;8.602;2022-07-23T04:22:07;16.45;;;7.78;;
66739;SDS011;53653;52.188;8.602;2022-07-23T04:24:36;15.15;;;7.63;;
66739;SDS011;53653;52.188;8.602;2022-07-23T04:27:02;18.20;;;7.70;;
66739;SDS011;53653;52.188;8.602;2022-07-23T04:29:27;17.15;;;7.65;;
66739;SDS011;53653;52.188;8.602;2022-07-23T04:31:53;17.77;;;7.73;;
66739;SDS011;53653;52.188;8.602;2022-07-23T04:34:21;15.00;;;7.53;;
66739;SDS011;53653;52.188;8.602;2022-07-23T04:36:47;15.40;;;7.97;;
66739;SDS011;53653;52.188;8.602;2022-07-23T04:39:13;18.40;;;9.02;;
66739;SDS011;53653;52.188;8.602;2022-07-23T04:41:41;20.10;;;8.33;;
66739;SDS011;53653;52.188;8.602;2022-07-23T04:44:11;18.70;;;7.85;;
66739;SDS011;53653;52.188;8.602;2022-07-23T04:46:37;21.17;;;8.45;;
66739;SDS011;53653;52.188;8.602;2022-07-23T04:49:03;15.77;;;7.63;;
66739;SDS011;53653;52.188;8.602;2022-07-23T04:51:28;19.73;;;8.13;;
66739;SDS011;53653;52.188;8.602;2022-07-23T04:53:54;17.00;;;8.13;;
66739;SDS011;53653;52.188;8.602;2022-07-23T04:56:20;16.13;;;7.60;;
66739;SDS011;53653;52.188;8.602;2022-07-23T04:58:45;15.87;;;7.60;;
66739;SDS011;53653;52.188;8.602;2022-07-23T05:01:14;14.95;;;7.38;;
66739;SDS011;53653;52.188;8.602;2022-07-23T05:03:42;18.00;;;7.97;;
66739;SDS011;53653;52.188;8.602;2022-07-23T05:06:08;16.90;;;7.70;;
66739;SDS011;53653;52.188;8.602;2022-07-23T05:08:33;19.95;;;7.60;;
66739;SDS011;53653;52.188;8.602;2022-07-23T05:10:59;22.30;;;8.30;;
66739;SDS011;53653;52.188;8.602;2022-07-23T05:13:25;16.58;;;7.93;;
66739;SDS011;53653;52.188;8.602;2022-07-23T05:15:50;16.20;;;8.10;;
66739;SDS011;53653;52.188;8.602;2022-07-23T05:18:16;14.50;;;8.00;;
66739;SDS011;53653;52.188;8.602;2022-07-23T05:20:44;16.50;;;8.40;;
66739;SDS011;53653;52.188;8.602;2022-07-23T05:23:12;16.60;;;8.53;;
66739;SDS011;53653;52.188;8.602;2022-07-23T05:25:40;15.63;;;7.93;;
66739;SDS011;53653;52.188;8.602;2022-07-23T05:28:05;15.82;;;7.85;;
66739;SDS011;53653;52.188;8.602;2022-07-23T05:30:33;16.83;;;7.65;;
66739;SDS011;53653;52.188;8.602;2022-07-23T05:32:59;17.03;;;7.90;;
66739;SDS011;53653;52.188;8.602;2022-07-23T05:35:27;15.60;;;7.50;;
66739;SDS011;53653;52.188;8.602;2022-07-23T05:37:55;15.60;;;8.43;;
66739;SDS011;53653;52.188;8.602;2022-07-23T05:40:23;17.95;;;8.25;;
66739;SDS011;53653;52.188;8.602;2022-07-23T05:42:48;17.60;;;7.80;;
66739;SDS011;53653;52.188;8.602;2022-07-23T05:45:14;16.13;;;8.23;;
66739;SDS011;53653;52.188;8.602;2022-07-23T05:47:40;17.17;;;7.67;;
66739;SDS011;53653;52.188;8.602;2022-07-23T05:50:10;11.88;;;6.78;;
66739;SDS011;53653;52.188;8.602;2022-07-23T05:52:37;15.68;;;7.47;;
66739;SDS011;53653;52.188;8.602;2022-07-23T05:55:05;13.52;;;7.30;;
66739;SDS011;53653;52.188;8.602;2022-07-23T05:57:32;14.93;;;8.07;;
66739;SDS011;53653;52.188;8.602;2022-07-23T05:59:58;17.10;;;7.53;;
66739;SDS011;53653;52.188;8.602;2022-07-23T06:02:23;16.10;;;7.40;;
66739;SDS011;53653;52.188;8.602;2022-07-23T06:04:51;12.70;;;7.22;;
66739;SDS011;53653;52.188;8.602;2022-07-23T06:07:17;14.30;;;7.50;;
66739;SDS011;53653;52.188;8.602;2022-07-23T06:09:42;15.07;;;7.15;;
66739;SDS011;53653;52.188;8.602;2022-07-23T06:12:08;15.87;;;7.63;;
66739;SDS011;53653;52.188;8.602;2022-07-23T06:14:35;14.25;;;7.00;;
66739;SDS011;53653;52.188;8.602;2022-07-23T06:17:01;14.23;;;7.53;;
66739;SDS011;53653;52.188;8.602;2022-07-23T06:19:29;13.37;;;6.90;;
66739;SDS011;53653;52.188;8.602;2022-07-23T06:21:54;13.60;;;7.33;;
66739;SDS011;53653;52.188;8.602;2022-07-23T06:24:20;15.75;;;7.35;;
66739;SDS011;53653;52.188;8.602;2022-07-23T06:26:45;12.70;;;6.90;;
66739;SDS011;53653;52.188;8.602;2022-07-23T06:29:11;14.07;;;7.13;;
66739;SDS011;53653;52.188;8.602;2022-07-23T06:31:36;11.35;;;6.47;;
66739;SDS011;53653;52.188;8.602;2022-07-23T06:34:02;11.67;;;6.23;;
66739;SDS011;53653;52.188;8.602;2022-07-23T06:36:28;16.15;;;6.97;;
66739;SDS011;53653;52.188;8.602;2022-07-23T06:38:54;14.17;;;6.60;;
66739;SDS011;53653;52.188;8.602;2022-07-23T06:41:19;14.13;;;6.57;;
66739;SDS011;53653;52.188;8.602;2022-07-23T06:43:44;13.30;;;6.13;;
66739;SDS011;53653;52.188;8.602;2022-07-23T06:46:10;13.50;;;6.27;;
66739;SDS011;53653;52.188;8.602;2022-07-23T06:48:35;13.48;;;6.03;;
66739;SDS011;53653;52.188;8.602;2022-07-23T06:51:01;14.10;;;5.37;;
66739;SDS011;53653;52.188;8.602;2022-07-23T06:53:27;9.63;;;4.45;;
66739;SDS011;53653;52.188;8.602;2022-07-23T06:55:53;9.50;;;4.10;;
66739;SDS011;53653;52.188;8.602;2022-07-23T06:58:18;8.33;;;4.43;;
66739;SDS011;53653;52.188;8.602;2022-07-23T07:00:45;11.30;;;4.07;;
66739;SDS011;53653;52.188;8.602;2022-07-23T07:03:13;10.48;;;4.47;;
66739;SDS011;53653;52.188;8.602;2022-07-23T07:05:39;9.65;;;4.50;;
66739;SDS011;53653;52.188;8.602;2022-07-23T07:08:05;10.13;;;4.20;;
66739;SDS011;53653;52.188;8.602;2022-07-23T07:10:31;9.87;;;3.90;;
66739;SDS011;53653;52.188;8.602;2022-07-23T07:12:57;9.82;;;3.78;;
66739;SDS011;53653;52.188;8.602;2022-07-23T07:15:22;10.52;;;3.15;;
66739;SDS011;53653;52.188;8.602;2022-07-23T07:17:48;9.00;;;3.63;;
66739;SDS011;53653;52.188;8.602;2022-07-23T07:20:14;7.97;;;3.40;;
66739;SDS011;53653;52.188;8.602;2022-07-23T07:22:39;8.05;;;3.70;;
66739;SDS011;53653;52.188;8.602;2022-07-23T07:25:05;8.83;;;3.67;;
66739;SDS011;53653;52.188;8.602;2022-07-23T07:27:31;8.60;;;3.90;;
66739;SDS011;53653;52.188;8.602;2022-07-23T07:29:59;9.93;;;3.60;;
66739;SDS011;53653;52.188;8.602;2022-07-23T07:32:24;11.18;;;3.58;;
66739;SDS011;53653;52.188;8.602;2022-07-23T07:34:50;12.33;;;3.60;;
66739;SDS011;53653;52.188;8.602;2022-07-23T07:37:16;8.47;;;3.40;;
66739;SDS011;53653;52.188;8.602;2022-07-23T07:39:41;8.40;;;3.80;;
66739;SDS011;53653;52.188;8.602;2022-07-23T07:42:07;12.35;;;3.75;;
66739;SDS011;53653;52.188;8.602;2022-07-23T07:44:32;7.47;;;3.27;;
66739;SDS011;53653;52.188;8.602;2022-07-23T07:46:58;9.33;;;3.53;;
66739;SDS011;53653;52.188;8.602;2022-07-23T07:49:23;7.85;;;3.97;;
66739;SDS011;53653;52.188;8.602;2022-07-23T07:51:49;10.80;;;4.30;;
66739;SDS011;53653;52.188;8.602;2022-07-23T07:54:14;8.90;;;3.63;;
66739;SDS011;53653;52.188;8.602;2022-07-23T07:56:40;7.97;;;3.77;;
66739;SDS011;53653;52.188;8.602;2022-07-23T07:59:06;8.37;;;3.77;;
66739;SDS011;53653;52.188;8.602;2022-07-23T08:01:31;10.60;;;3.78;;
66739;SDS011;53653;52.188;8.602;2022-07-23T08:03:59;13.63;;;4.20;;
66739;SDS011;53653;52.188;8.602;2022-07-23T08:06:24;9.67;;;4.40;;
66739;SDS011;53653;52.188;8.602;2022-07-23T08:08:50;10.07;;;4.07;;
66739;SDS011;53653;52.188;8.602;2022-07-23T08:11:15;7.80;;;3.95;;
66739;SDS011;53653;52.188;8.602;2022-07-23T08:13:41;10.90;;;4.00;;
66739;SDS011;53653;52.188;8.602;2022-07-23T08:16:09;8.18;;;4.20;;
66739;SDS011;53653;52.188;8.602;2022-07-23T08:18:34;8.30;;;3.70;;
66739;SDS011;53653;52.188;8.602;2022-07-23T08:21:00;8.20;;;3.90;;
66739;SDS011;53653;52.188;8.602;2022-07-23T08:23:25;8.05;;;3.75;;
66739;SDS011;53653;52.188;8.602;2022-07-23T08:25:54;9.30;;;4.17;;
66739;SDS011;53653;52.188;8.602;2022-07-23T08:28:21;8.82;;;4.20;;
66739;SDS011;53653;52.188;8.602;2022-07-23T08:30:48;11.13;;;4.32;;
66739;SDS011;53653;52.188;8.602;2022-07-23T08:33:14;10.43;;;4.40;;
66739;SDS011;53653;52.188;8.602;2022-07-23T08:35:42;7.87;;;3.50;;
66739;SDS011;53653;52.188;8.602;2022-07-23T08:38:11;8.23;;;4.03;;
66739;SDS011;53653;52.188;8.602;2022-07-23T08:40:48;9.07;;;3.63;;
66739;SDS011;53653;52.188;8.602;2022-07-23T08:43:19;9.43;;;3.85;;
66739;SDS011;53653;52.188;8.602;2022-07-23T08:45:48;7.75;;;3.55;;
66739;SDS011;53653;52.188;8.602;2022-07-23T08:48:16;8.63;;;3.93;;
66739;SDS011;53653;52.188;8.602;2022-07-23T08:50:51;9.27;;;3.30;;
66739;SDS011;53653;52.188;8.602;2022-07-23T08:53:19;8.15;;;3.15;;
66739;SDS011;53653;52.188;8.602;2022-07-23T08:55:47;7.28;;;3.10;;
66739;SDS011;53653;52.188;8.602;2022-07-23T08:58:15;8.90;;;3.15;;
66739;SDS011;53653;52.188;8.602;2022-07-23T09:00:43;8.83;;;3.47;;
66739;SDS011;53653;52.188;8.602;2022-07-23T09:03:31;7.30;;;3.10;;
66739;SDS011;53653;52.188;8.602;2022-07-23T09:05:57;7.38;;;2.60;;
66739;SDS011;53653;52.188;8.602;2022-07-23T09:08:24;7.55;;;3.00;;
66739;SDS011;53653;52.188;8.602;2022-07-23T09:10:59;6.32;;;2.80;;
66739;SDS011;53653;52.188;8.602;2022-07-23T09:16:20;8.20;;;2.88;;
66739;SDS011;53653;52.188;8.602;2022-07-23T09:18:53;6.63;;;3.10;;
66739;SDS011;53653;52.188;8.602;2022-07-23T09:21:23;9.80;;;3.28;;
66739;SDS011;53653;52.188;8.602;2022-07-23T09:31:56;7.68;;;2.83;;
66739;SDS011;53653;52.188;8.602;2022-07-23T09:34:24;5.28;;;2.20;;
66739;SDS011;53653;52.188;8.602;2022-07-23T09:36:57;7.18;;;2.80;;
66739;SDS011;53653;52.188;8.602;2022-07-23T09:39:36;7.80;;;2.83;;
66739;SDS011;53653;52.188;8.602;2022-07-23T09:42:16;9.10;;;2.70;;
66739;SDS011;53653;52.188;8.602;2022-07-23T09:44:56;6.20;;;2.40;;
66739;SDS011;53653;52.188;8.602;2022-07-23T09:47:24;5.68;;;2.60;;
66739;SDS011;53653;52.188;8.602;2022-07-23T09:50:04;7.22;;;2.35;;
66739;SDS011;53653;52.188;8.602;2022-07-23T09:52:46;7.63;;;2.50;;
66739;SDS011;53653;52.188;8.602;2022-07-23T09:55:13;5.90;;;2.45;;
66739;SDS011;53653;52.188;8.602;2022-07-23T09:57:40;7.85;;;2.72;;
66739;SDS011;53653;52.188;8.602;2022-07-23T10:00:07;10.68;;;2.58;;
66739;SDS011;53653;52.188;8.602;2022-07-23T10:02:35;7.00;;;2.65;;
66739;SDS011;53653;52.188;8.602;2022-07-23T10:05:02;5.83;;;2.50;;
66739;SDS011;53653;52.188;8.602;2022-07-23T10:07:31;7.07;;;2.63;;
66739;SDS011;53653;52.188;8.602;2022-07-23T10:10:00;5.80;;;2.80;;
66739;SDS011;53653;52.188;8.602;2022-07-23T10:12:27;6.20;;;2.63;;
66739;SDS011;53653;52.188;8.602;2022-07-23T10:15:02;7.95;;;2.25;;
66739;SDS011;53653;52.188;8.602;2022-07-23T10:17:30;5.73;;;2.20;;
66739;SDS011;53653;52.188;8.602;2022-07-23T10:19:56;6.45;;;2.42;;
66739;SDS011;53653;52.188;8.602;2022-07-23T10:22:23;6.65;;;2.28;;
66739;SDS011;53653;52.188;8.602;2022-07-23T10:36:18;9.32;;;2.42;;
66739;SDS011;53653;52.188;8.602;2022-07-23T10:38:56;5.07;;;2.20;;
66739;SDS011;53653;52.188;8.602;2022-07-23T10:44:14;5.43;;;1.95;;
66739;SDS011;53653;52.188;8.602;2022-07-23T10:49:47;6.90;;;2.30;;
66739;SDS011;53653;52.188;8.602;2022-07-23T10:54:42;6.22;;;2.42;;
66739;SDS011;53653;52.188;8.602;2022-07-23T10:57:08;6.00;;;2.60;;
66739;SDS011;53653;52.188;8.602;2022-07-23T11:02:41;6.63;;;2.55;;
66739;SDS011;53653;52.188;8.602;2022-07-23T11:05:12;8.65;;;2.45;;
66739;SDS011;53653;52.188;8.602;2022-07-23T11:31:51;6.93;;;2.60;;
66739;SDS011;53653;52.188;8.602;2022-07-23T11:37:05;5.85;;;2.50;;
66739;SDS011;53653;52.188;8.602;2022-07-23T11:39:33;7.43;;;2.67;;
66739;SDS011;53653;52.188;8.602;2022-07-23T11:42:00;6.75;;;3.25;;
66739;SDS011;53653;52.188;8.602;2022-07-23T11:44:33;6.27;;;2.90;;
66739;SDS011;53653;52.188;8.602;2022-07-23T11:47:04;5.50;;;2.75;;
66739;SDS011;53653;52.188;8.602;2022-07-23T11:49:33;7.60;;;2.80;;
66739;SDS011;53653;52.188;8.602;2022-07-23T11:54:30;5.55;;;2.92;;
66739;SDS011;53653;52.188;8.602;2022-07-23T11:56:56;5.93;;;2.73;;
66739;SDS011;53653;52.188;8.602;2022-07-23T11:59:27;6.07;;;2.80;;
66739;SDS011;53653;52.188;8.602;2022-07-23T12:01:57;7.18;;;3.47;;
66739;SDS011;53653;52.188;8.602;2022-07-23T12:04:47;5.43;;;2.80;;
66739;SDS011;53653;52.188;8.602;2022-07-23T12:09:59;5.00;;;2.80;;
66739;SDS011;53653;52.188;8.602;2022-07-23T12:12:50;6.32;;;2.83;;
66739;SDS011;53653;52.188;8.602;2022-07-23T12:15:17;5.65;;;2.53;;
66739;SDS011;53653;52.188;8.602;2022-07-23T12:17:48;5.35;;;2.38;;
66739;SDS011;53653;52.188;8.602;2022-07-23T12:20:15;6.38;;;2.50;;
66739;SDS011;53653;52.188;8.602;2022-07-23T12:22:45;5.17;;;2.20;;
66739;SDS011;53653;52.188;8.602;2022-07-23T12:25:17;8.90;;;2.45;;
66739;SDS011;53653;52.188;8.602;2022-07-23T12:27:45;6.28;;;2.35;;
66739;SDS011;53653;52.188;8.602;2022-07-23T12:30:23;6.20;;;2.53;;
66739;SDS011;53653;52.188;8.602;2022-07-23T12:32:51;8.40;;;2.60;;
66739;SDS011;53653;52.188;8.602;2022-07-23T12:35:19;5.93;;;2.10;;
66739;SDS011;53653;52.188;8.602;2022-07-23T12:37:46;5.00;;;1.90;;
66739;SDS011;53653;52.188;8.602;2022-07-23T12:40:21;6.50;;;2.00;;
66739;SDS011;53653;52.188;8.602;2022-07-23T12:42:51;7.60;;;1.85;;
66739;SDS011;53653;52.188;8.602;2022-07-23T12:45:21;5.72;;;1.85;;
66739;SDS011;53653;52.188;8.602;2022-07-23T12:47:50;7.57;;;2.10;;
66739;SDS011;53653;52.188;8.602;2022-07-23T12:50:35;5.57;;;1.80;;
66739;SDS011;53653;52.188;8.602;2022-07-23T12:55:36;5.60;;;1.75;;
66739;SDS011;53653;52.188;8.602;2022-07-23T12:58:10;6.83;;;2.00;;
66739;SDS011;53653;52.188;8.602;2022-07-23T13:03:29;5.65;;;1.98;;
66739;SDS011;53653;52.188;8.602;2022-07-23T13:05:59;6.82;;;2.35;;
66739;SDS011;53653;52.188;8.602;2022-07-23T13:08:27;5.72;;;2.10;;
66739;SDS011;53653;52.188;8.602;2022-07-23T13:10:54;4.50;;;1.77;;
66739;SDS011;53653;52.188;8.602;2022-07-23T13:13:21;5.15;;;2.08;;
66739;SDS011;53653;52.188;8.602;2022-07-23T13:15:48;5.32;;;1.70;;
66739;SDS011;53653;52.188;8.602;2022-07-23T13:18:14;4.60;;;1.80;;
66739;SDS011;53653;52.188;8.602;2022-07-23T13:20:41;4.32;;;1.67;;
66739;SDS011;53653;52.188;8.602;2022-07-23T13:23:08;5.93;;;1.70;;
66739;SDS011;53653;52.188;8.602;2022-07-23T13:25:33;5.22;;;1.70;;
66739;SDS011;53653;52.188;8.602;2022-07-23T13:27:59;5.50;;;1.80;;
66739;SDS011;53653;52.188;8.602;2022-07-23T13:30:25;4.43;;;1.52;;
66739;SDS011;53653;52.188;8.602;2022-07-23T13:32:51;4.82;;;1.52;;
66739;SDS011;53653;52.188;8.602;2022-07-23T13:35:16;6.10;;;2.10;;
66739;SDS011;53653;52.188;8.602;2022-07-23T13:37:42;5.90;;;1.80;;
66739;SDS011;53653;52.188;8.602;2022-07-23T13:40:08;6.40;;;1.77;;
66739;SDS011;53653;52.188;8.602;2022-07-23T13:42:34;5.47;;;1.55;;
66739;SDS011;53653;52.188;8.602;2022-07-23T13:45:00;5.00;;;1.65;;
66739;SDS011;53653;52.188;8.602;2022-07-23T13:47:26;7.43;;;1.77;;
66739;SDS011;53653;52.188;8.602;2022-07-23T13:49:51;4.73;;;1.40;;
66739;SDS011;53653;52.188;8.602;2022-07-23T13:52:17;4.55;;;1.40;;
66739;SDS011;53653;52.188;8.602;2022-07-23T13:54:42;4.03;;;1.40;;
66739;SDS011;53653;52.188;8.602;2022-07-23T13:57:08;4.27;;;1.60;;
66739;SDS011;53653;52.188;8.602;2022-07-23T13:59:34;5.57;;;1.55;;
66739;SDS011;53653;52.188;8.602;2022-07-23T14:02:00;8.20;;;1.60;;
66739;SDS011;53653;52.188;8.602;2022-07-23T14:04:30;5.68;;;1.55;;
66739;SDS011;53653;52.188;8.602;2022-07-23T14:06:56;5.50;;;1.70;;
66739;SDS011;53653;52.188;8.602;2022-07-23T14:09:21;4.75;;;1.70;;
66739;SDS011;53653;52.188;8.602;2022-07-23T14:11:47;6.80;;;1.70;;
66739;SDS011;53653;52.188;8.602;2022-07-23T14:14:13;8.75;;;1.83;;
66739;SDS011;53653;52.188;8.602;2022-07-23T14:16:39;4.70;;;1.48;;
66739;SDS011;53653;52.188;8.602;2022-07-23T14:19:04;5.70;;;1.60;;
66739;SDS011;53653;52.188;8.602;2022-07-23T14:21:30;5.63;;;1.63;;
66739;SDS011;53653;52.188;8.602;2022-07-23T14:23:55;5.60;;;1.70;;
66739;SDS011;53653;52.188;8.602;2022-07-23T14:26:21;5.60;;;1.67;;
66739;SDS011;53653;52.188;8.602;2022-07-23T14:28:46;5.17;;;1.57;;
66739;SDS011;53653;52.188;8.602;2022-07-23T14:31:12;5.47;;;1.63;;
66739;SDS011;53653;52.188;8.602;2022-07-23T14:33:37;6.20;;;1.60;;
66739;SDS011;53653;52.188;8.602;2022-07-23T14:36:03;5.20;;;1.80;;
66739;SDS011;53653;52.188;8.602;2022-07-23T14:38:28;4.75;;;1.80;;
66739;SDS011;53653;52.188;8.602;2022-07-23T14:40:55;4.10;;;1.40;;
66739;SDS011;53653;52.188;8.602;2022-07-23T14:43:21;4.45;;;1.40;;
66739;SDS011;53653;52.188;8.602;2022-07-23T14:45:46;5.22;;;1.90;;
66739;SDS011;53653;52.188;8.602;2022-07-23T14:48:12;6.03;;;2.40;;
66739;SDS011;53653;52.188;8.602;2022-07-23T14:50:37;5.27;;;1.70;;
66739;SDS011;53653;52.188;8.602;2022-07-23T14:53:03;4.63;;;1.70;;
66739;SDS011;53653;52.188;8.602;2022-07-23T14:55:30;5.55;;;1.77;;
66739;SDS011;53653;52.188;8.602;2022-07-23T14:57:56;5.40;;;1.65;;
66739;SDS011;53653;52.188;8.602;2022-07-23T15:00:22;6.13;;;1.40;;
66739;SDS011;53653;52.188;8.602;2022-07-23T15:02:48;5.13;;;1.60;;
66739;SDS011;53653;52.188;8.602;2022-07-23T15:05:13;4.87;;;1.70;;
66739;SDS011;53653;52.188;8.602;2022-07-23T15:07:39;6.13;;;2.00;;
66739;SDS011;53653;52.188;8.602;2022-07-23T15:10:05;4.47;;;1.80;;
66739;SDS011;53653;52.188;8.602;2022-07-23T15:12:31;4.40;;;1.70;;
66739;SDS011;53653;52.188;8.602;2022-07-23T15:14:56;4.80;;;1.63;;
66739;SDS011;53653;52.188;8.602;2022-07-23T15:17:22;6.50;;;1.60;;
66739;SDS011;53653;52.188;8.602;2022-07-23T15:19:47;4.47;;;1.58;;
66739;SDS011;53653;52.188;8.602;2022-07-23T15:22:13;6.23;;;2.00;;
66739;SDS011;53653;52.188;8.602;2022-07-23T15:24:38;5.93;;;2.10;;
66739;SDS011;53653;52.188;8.602;2022-07-23T15:27:04;4.95;;;1.52;;
66739;SDS011;53653;52.188;8.602;2022-07-23T15:29:32;5.17;;;1.80;;
66739;SDS011;53653;52.188;8.602;2022-07-23T15:31:58;6.20;;;2.10;;
66739;SDS011;53653;52.188;8.602;2022-07-23T15:34:23;4.87;;;1.60;;
66739;SDS011;53653;52.188;8.602;2022-07-23T15:36:49;5.57;;;1.70;;
66739;SDS011;53653;52.188;8.602;2022-07-23T15:39:14;4.70;;;1.80;;
66739;SDS011;53653;52.188;8.602;2022-07-23T15:41:40;5.57;;;1.67;;
66739;SDS011;53653;52.188;8.602;2022-07-23T15:44:05;4.93;;;1.77;;
66739;SDS011;53653;52.188;8.602;2022-07-23T15:46:31;5.68;;;1.77;;
66739;SDS011;53653;52.188;8.602;2022-07-23T15:48:56;4.10;;;1.50;;
66739;SDS011;53653;52.188;8.602;2022-07-23T15:51:22;4.37;;;1.47;;